Time;durP1;ratioP1;P1;durP2;ratioP2;P2;SDS_P1;SDS_P2;PMS_P1;PMS_P2;Temp;Humidity;BMP_temperature;BMP_pressure;BME280_temperature;BME280_humidity;BME280_pressure;Samples;Min_cycle;Max_cycle;Signal;HPM_P1;HPM_P2
2022/12/01 00:06:05;;;;;;;40.95;18.75;;;;;;;6.67;72.62;100154.33;4260142;82;28632;-85
2022/12/01 00:12:06;;;;;;;40.73;18.77;;;;;;;6.62;72.40;100158.54;4249487;82;28529;-85
2022/12/01 00:18:09;;;;;;;38.95;19.15;;;;;;;6.78;72.51;100160.27;4261870;82;28542;-85
2022/12/01 00:24:11;;;;;;;39.42;18.87;;;;;;;6.98;71.85;100150.74;4223350;83;28514;-85
2022/12/01 00:30:13;;;;;;;40.08;19.82;;;;;;;6.78;71.70;100162.94;4244491;82;28519;-84
2022/12/01 00:36:14;;;;;;;43.05;19.57;;;;;;;7.00;71.90;100157.75;4260455;82;28598;-84
2022/12/01 00:42:19;;;;;;;43.28;20.08;;;;;;;6.82;72.56;100165.08;4268313;82;28488;-83
2022/12/01 00:48:19;;;;;;;38.30;18.52;;;;;;;6.91;71.56;100168.50;4238144;82;28530;-83
2022/12/01 00:54:21;;;;;;;43.52;20.52;;;;;;;6.69;71.67;100171.53;4178424;82;28526;-84
2022/12/01 01:00:22;;;;;;;41.58;19.55;;;;;;;7.23;70.34;100170.58;4160020;84;28586;-85
2022/12/01 01:06:24;;;;;;;40.73;18.75;;;;;;;6.90;70.75;100162.84;4161113;84;28519;-84
2022/12/01 01:12:27;;;;;;;40.03;19.82;;;;;;;6.80;71.31;100159.57;4163993;84;28496;-83
2022/12/01 01:18:30;;;;;;;43.45;19.23;;;;;;;7.21;70.34;100145.86;4162977;84;28533;-88
2022/12/01 01:24:31;;;;;;;41.80;19.23;;;;;;;7.04;70.67;100136.34;4133687;84;28505;-87
2022/12/01 01:30:32;;;;;;;45.35;21.73;;;;;;;6.92;70.81;100135.41;4165635;84;28527;-87
2022/12/01 01:36:34;;;;;;;45.48;22.48;;;;;;;6.34;74.75;100131.83;4163739;84;28573;-87
2022/12/01 01:42:35;;;;;;;45.80;21.80;;;;;;;6.65;73.72;100132.30;4163031;84;28498;-88
2022/12/01 01:48:38;;;;;;;46.92;21.15;;;;;;;6.06;77.45;100132.83;4160156;84;28494;-88
2022/12/01 01:54:44;;;;;;;44.80;21.33;;;;;;;6.91;74.40;100127.59;4162216;83;28594;-87
2022/12/01 02:00:46;;;;;;;43.50;21.10;;;;;;;6.87;73.86;100124.94;4166518;84;28519;-88
2022/12/01 02:06:47;;;;;;;44.18;20.27;;;;;;;6.70;74.67;100113.87;4164388;84;28502;-88
2022/12/01 02:13:01;;;;;;;46.40;21.35;;;;;;;6.77;74.42;100114.50;4140921;84;28559;-87
2022/12/01 02:19:45;;;;;;;45.20;20.92;;;;;;;6.73;74.45;100118.03;4169014;84;28534;-85
2022/12/01 02:26:13;;;;;;;44.93;20.17;;;;;;;6.55;76.07;100119.67;4163604;84;28533;-85
2022/12/01 02:32:55;;;;;;;40.00;19.77;;;;;;;7.03;73.18;100111.92;4153335;84;28517;-86
2022/12/01 02:39:22;;;;;;;45.80;21.07;;;;;;;6.65;74.73;100126.11;4165401;84;28582;-86
2022/12/01 02:45:29;;;;;;;45.80;20.77;;;;;;;6.59;75.93;100126.84;4149262;84;28476;-84
2022/12/01 02:51:34;;;;;;;45.88;21.70;;;;;;;6.48;76.41;100123.56;4160790;82;28504;-85
2022/12/01 02:57:35;;;;;;;42.30;19.92;;;;;;;6.46;77.81;100113.56;4164466;84;28542;-82
2022/12/01 03:03:48;;;;;;;44.73;21.57;;;;;;;6.54;78.31;100118.83;4165483;84;28557;-84
2022/12/01 03:10:14;;;;;;;43.25;20.02;;;;;;;6.62;77.08;100103.75;4163903;84;28482;-84
2022/12/01 03:16:43;;;;;;;43.55;20.75;;;;;;;6.39;79.55;100102.73;4144223;84;28539;-86
2022/12/01 03:22:52;;;;;;;43.42;20.32;;;;;;;6.52;80.38;100100.00;4159609;84;28494;-87
2022/12/01 03:28:58;;;;;;;41.85;19.85;;;;;;;7.15;76.76;100102.97;4160889;84;28486;-84
2022/12/01 03:35:15;;;;;;;40.58;19.40;;;;;;;6.37;80.30;100107.95;4173655;84;28520;-84
2022/12/01 03:41:22;;;;;;;43.25;19.80;;;;;;;8.05;76.93;100090.36;4164258;84;28517;-84
2022/12/01 03:47:31;;;;;;;45.83;21.02;;;;;;;6.96;78.33;100085.09;4153957;84;28498;-84
2022/12/01 03:53:43;;;;;;;44.35;21.10;;;;;;;6.84;79.67;100072.16;4154440;84;28578;-84
2022/12/01 03:59:46;;;;;;;41.68;18.20;;;;;;;6.94;78.79;100081.27;4148881;85;28480;-84
2022/12/01 04:05:48;;;;;;;39.42;18.55;;;;;;;6.75;80.54;100073.24;4151743;84;28468;-84
2022/12/01 04:18:08;;;;;;;36.60;18.05;;;;;;;6.93;81.65;100062.73;4159763;84;28490;-85
2022/12/01 04:24:12;;;;;;;34.00;17.20;;;;;;;7.00;81.20;100064.16;4163297;84;28496;-86
2022/12/01 04:30:14;;;;;;;31.93;15.65;;;;;;;6.75;82.17;100060.40;4156620;84;28524;-83
2022/12/01 04:36:15;;;;;;;30.88;14.25;;;;;;;6.59;84.52;100059.52;4157283;84;28528;-85
2022/12/01 04:42:17;;;;;;;31.60;14.53;;;;;;;6.82;83.79;100063.98;4155345;84;28474;-85
2022/12/01 04:48:18;;;;;;;27.87;13.95;;;;;;;7.10;83.02;100061.56;4153001;85;28518;-86
2022/12/01 04:54:20;;;;;;;28.20;13.53;;;;;;;6.83;85.49;100069.16;4165497;84;28514;-86
2022/12/01 05:00:21;;;;;;;26.05;13.03;;;;;;;6.65;85.02;100066.82;4166846;84;28527;-86
2022/12/01 05:06:26;;;;;;;27.55;13.78;;;;;;;6.66;86.72;100065.80;4165568;84;28573;-85
2022/12/01 05:12:28;;;;;;;25.30;13.32;;;;;;;6.77;86.97;100069.06;4159948;84;28585;-85
2022/12/01 05:18:29;;;;;;;25.32;13.00;;;;;;;7.08;85.71;100073.45;4156225;84;28795;-87
2022/12/01 05:24:30;;;;;;;24.40;12.85;;;;;;;6.87;86.13;100070.13;4143895;84;28492;-87
2022/12/01 05:30:32;;;;;;;25.32;12.47;;;;;;;6.71;87.54;100073.28;4166401;84;28482;-86
2022/12/01 05:36:33;;;;;;;23.12;12.28;;;;;;;6.33;90.20;100083.43;4154846;84;28523;-87
2022/12/01 05:42:34;;;;;;;24.43;12.43;;;;;;;6.67;88.53;100082.69;4161679;84;28451;-84
2022/12/01 05:48:36;;;;;;;24.67;11.25;;;;;;;6.59;89.93;100079.55;4165470;84;28563;-87
2022/12/01 05:54:37;;;;;;;23.83;11.53;;;;;;;6.88;87.79;100081.17;4147872;84;28582;-88
2022/12/01 06:00:38;;;;;;;20.68;10.95;;;;;;;7.25;85.05;100086.14;4161955;84;28560;-87
2022/12/01 06:06:40;;;;;;;22.70;11.15;;;;;;;7.37;83.80;100091.88;4167451;84;28536;-86
2022/12/01 06:12:41;;;;;;;24.12;11.50;;;;;;;7.10;85.08;100096.83;4188422;83;28549;-86
2022/12/01 06:18:43;;;;;;;24.70;11.80;;;;;;;7.08;83.99;100106.39;4199489;84;28501;-87
2022/12/01 06:24:44;;;;;;;23.83;12.07;;;;;;;6.52;86.76;100113.36;4161582;84;28483;-90
2022/12/01 06:30:45;;;;;;;20.10;10.10;;;;;;;6.91;85.20;100108.35;4144114;84;28526;-86
2022/12/01 06:36:47;;;;;;;21.75;10.78;;;;;;;6.76;86.48;100104.83;4157738;84;28531;-86
2022/12/01 06:42:48;;;;;;;22.17;11.33;;;;;;;7.42;82.91;100107.38;4167613;84;28483;-90
2022/12/01 06:48:55;;;;;;;23.05;11.60;;;;;;;6.66;85.28;100109.05;4161003;84;28515;-89
2022/12/01 06:54:59;;;;;;;25.95;12.23;;;;;;;6.67;86.46;100108.89;4196251;82;28576;-88
2022/12/01 07:01:09;;;;;;;25.05;12.20;;;;;;;6.73;85.02;100106.00;4242288;82;28574;-88
2022/12/01 07:07:12;;;;;;;24.43;11.83;;;;;;;6.76;84.78;100106.16;4255769;82;28504;-88
2022/12/01 07:13:14;;;;;;;21.85;11.28;;;;;;;6.69;84.95;100112.73;4277755;82;28519;-89
2022/12/01 07:19:15;;;;;;;24.77;11.88;;;;;;;6.95;84.03;100106.16;4252265;82;28493;-87
2022/12/01 07:25:17;;;;;;;22.58;11.80;;;;;;;6.70;84.49;100109.86;4246049;82;28571;-84
2022/12/01 07:31:19;;;;;;;22.67;11.12;;;;;;;7.22;82.22;100109.25;4271773;82;28495;-84
2022/12/01 07:37:20;;;;;;;23.60;11.57;;;;;;;6.81;82.91;100111.78;4228105;82;28950;-85
2022/12/01 07:43:21;;;;;;;22.10;11.20;;;;;;;6.54;85.55;100117.50;4236934;82;28509;-86
2022/12/01 07:49:23;;;;;;;23.18;12.05;;;;;;;6.92;84.48;100106.52;4244207;82;28508;-87
2022/12/01 07:55:24;;;;;;;21.60;11.48;;;;;;;6.97;83.85;100107.64;4236264;83;28581;-87
2022/12/01 08:01:26;;;;;;;25.32;12.18;;;;;;;7.43;79.82;100108.52;4235276;82;28531;-86
2022/12/01 08:07:28;;;;;;;20.62;10.95;;;;;;;7.46;80.96;100114.02;4250780;82;28506;-87
2022/12/01 08:13:30;;;;;;;19.65;10.82;;;;;;;6.87;82.45;100115.58;4271977;82;28522;-86
2022/12/01 08:19:31;;;;;;;20.05;10.32;;;;;;;7.05;83.48;100117.95;4276823;82;28512;-86
2022/12/01 08:25:32;;;;;;;19.70;10.40;;;;;;;7.28;81.51;100114.38;4273004;82;28533;-86
2022/12/01 08:31:36;;;;;;;19.55;10.15;;;;;;;7.11;82.61;100126.07;4249759;82;28534;-86
2022/12/01 08:37:37;;;;;;;18.57;9.53;;;;;;;7.37;81.31;100128.00;4292667;82;28562;-87
2022/12/01 08:43:43;;;;;;;20.30;10.53;;;;;;;6.98;81.69;100128.02;4274919;82;28524;-87
2022/12/01 08:49:44;;;;;;;17.45;9.95;;;;;;;7.19;82.18;100129.69;4240680;82;28557;-86
2022/12/01 08:55:47;;;;;;;20.40;9.98;;;;;;;7.32;80.01;100140.59;4247587;82;28570;-86
2022/12/01 09:01:51;;;;;;;20.23;9.88;;;;;;;7.08;81.43;100141.64;4276205;82;28513;-86
2022/12/01 09:08:30;;;;;;;22.37;9.73;;;;;;;7.63;78.78;100140.09;4232790;82;28522;-86
2022/12/01 09:13:58;;;;;;;20.05;9.20;;;;;;;6.94;82.63;100137.91;4237859;82;28525;-83
2022/12/01 09:19:59;;;;;;;22.80;10.35;;;;;;;7.05;79.94;100138.81;4277761;82;28512;-86
2022/12/01 09:26:01;;;;;;;19.55;9.35;;;;;;;6.69;82.66;100132.77;4233897;82;28522;-86
2022/12/01 09:32:02;;;;;;;15.65;7.90;;;;;;;7.01;82.41;100121.98;4263155;82;28569;-87
2022/12/01 09:38:04;;;;;;;18.75;9.68;;;;;;;7.05;79.73;100125.45;4296551;82;28530;-86
2022/12/01 09:44:36;;;;;;;19.75;10.80;;;;;;;7.38;77.69;100119.77;4265919;82;28470;-87
2022/12/01 09:50:37;;;;;;;19.10;9.38;;;;;;;7.72;75.63;100118.91;4306443;81;28532;-85
2022/12/01 09:56:48;;;;;;;22.07;10.63;;;;;;;7.61;72.06;100112.68;4241481;82;28573;-86
2022/12/01 10:02:54;;;;;;;19.82;10.40;;;;;;;7.63;74.13;100105.30;4218390;82;28589;-86
2022/12/01 10:09:19;;;;;;;21.57;11.28;;;;;;;7.02;76.06;100105.77;4237280;82;28505;-87
2022/12/01 10:15:32;;;;;;;19.48;10.55;;;;;;;8.14;71.82;100104.98;4197022;82;28522;-87
2022/12/01 10:22:00;;;;;;;22.87;11.33;;;;;;;7.55;71.49;100102.21;4172681;82;28479;-86
2022/12/01 10:28:25;;;;;;;21.33;10.93;;;;;;;7.88;71.33;100100.47;4211714;82;28523;-87
2022/12/01 10:34:36;;;;;;;23.00;11.63;;;;;;;7.91;70.00;100105.47;4220685;82;33825;-87
2022/12/01 10:40:40;;;;;;;20.08;11.12;;;;;;;7.18;72.89;100103.44;4209911;82;28527;-86
2022/12/01 10:46:53;;;;;;;21.30;10.80;;;;;;;7.31;71.90;100097.46;4240434;83;28566;-87
2022/12/01 10:52:55;;;;;;;25.05;13.35;;;;;;;6.76;73.11;100089.59;4212764;81;28535;-88
2022/12/01 10:59:05;;;;;;;25.48;12.63;;;;;;;7.84;70.86;100075.59;4164141;84;28546;-85
2022/12/01 11:05:23;;;;;;;28.02;13.60;;;;;;;7.15;73.36;100073.05;4162368;84;28494;-88
2022/12/01 11:11:36;;;;;;;24.52;12.40;;;;;;;7.93;69.00;100068.62;4184025;84;28467;-87
2022/12/01 11:17:41;;;;;;;23.85;11.83;;;;;;;7.11;71.30;100070.41;4145080;84;28567;-87
2022/12/01 11:23:55;;;;;;;21.12;10.80;;;;;;;7.09;73.21;100064.41;4189401;84;28572;-87
2022/12/01 11:30:03;;;;;;;21.50;10.58;;;;;;;6.84;72.01;100068.15;4171178;84;28510;-85
2022/12/01 11:36:06;;;;;;;17.62;9.60;;;;;;;7.50;70.17;100055.94;4170803;84;28539;-86
2022/12/01 11:42:25;;;;;;;20.43;10.80;;;;;;;7.10;70.12;100056.22;4156216;84;28505;-86
2022/12/01 11:48:34;;;;;;;22.55;11.22;;;;;;;6.97;71.82;100059.52;4175643;84;28562;-86
2022/12/01 11:54:35;;;;;;;25.55;12.20;;;;;;;7.01;71.47;100058.64;4141324;82;28502;-87
2022/12/01 12:00:54;;;;;;;21.70;11.10;;;;;;;7.28;70.12;100071.58;4139198;84;28460;-86
2022/12/01 12:07:07;;;;;;;25.50;11.57;;;;;;;6.74;74.25;100062.75;4172503;84;28531;-86
2022/12/01 12:13:29;;;;;;;22.27;11.75;;;;;;;7.42;70.85;100054.69;4149795;84;28567;-86
2022/12/01 12:20:10;;;;;;;23.30;12.35;;;;;;;6.95;71.39;100057.53;4130781;84;28534;-86
2022/12/01 12:26:25;;;;;;;23.77;12.78;;;;;;;7.19;71.02;100061.48;4140088;84;28542;-85
2022/12/01 12:33:06;;;;;;;27.98;12.93;;;;;;;7.64;69.28;100066.30;4174535;84;28559;-86
2022/12/01 12:39:44;;;;;;;23.62;12.07;;;;;;;6.83;71.31;100065.16;4186756;84;28571;-88
2022/12/01 12:46:09;;;;;;;22.73;10.90;;;;;;;7.32;70.17;100068.84;4179785;84;28527;-85
2022/12/01 12:52:32;;;;;;;22.77;11.30;;;;;;;6.70;70.92;100067.09;4166608;84;28503;-86
2022/12/01 12:58:39;;;;;;;20.90;10.23;;;;;;;7.62;67.93;100058.98;4264674;82;28507;-85
2022/12/01 13:05:06;;;;;;;23.85;12.58;;;;;;;6.28;71.27;100067.09;4258639;82;28549;-87
2022/12/01 13:11:22;;;;;;;21.90;10.48;;;;;;;7.46;68.50;100064.52;4283233;82;28638;-88
2022/12/01 13:17:39;;;;;;;22.10;10.82;;;;;;;7.23;67.43;100067.59;4264977;82;28638;-87
2022/12/01 13:23:43;;;;;;;21.95;10.90;;;;;;;6.54;69.46;100060.05;4241630;82;28666;-87
2022/12/01 13:29:49;;;;;;;19.60;9.93;;;;;;;7.56;67.32;100058.38;4262234;82;28527;-86
2022/12/01 13:35:53;;;;;;;20.43;10.40;;;;;;;7.21;67.18;100059.45;4280905;82;28508;-86
2022/12/01 13:42:25;;;;;;;20.70;9.90;;;;;;;7.05;67.90;100062.61;4332992;81;28488;-86
2022/12/01 13:48:42;;;;;;;21.17;9.98;;;;;;;7.34;66.77;100069.48;4319659;81;28567;-87
2022/12/01 13:55:10;;;;;;;19.60;10.53;;;;;;;7.27;67.60;100070.73;4303652;81;28536;-88
2022/12/01 14:01:28;;;;;;;23.87;11.78;;;;;;;7.41;67.00;100070.94;4308304;81;28548;-86
2022/12/01 14:07:35;;;;;;;22.87;11.35;;;;;;;7.15;67.57;100067.70;4253177;82;28545;-87
2022/12/01 14:13:54;;;;;;;18.02;10.35;;;;;;;7.27;67.08;100072.59;4254268;82;28491;-88
2022/12/01 14:20:21;;;;;;;17.37;9.50;;;;;;;7.65;65.99;100065.78;4217128;82;28537;-86
2022/12/01 14:26:23;;;;;;;18.65;10.03;;;;;;;7.22;66.37;100065.94;4252551;82;28521;-87
2022/12/01 14:32:25;;;;;;;18.25;9.60;;;;;;;7.19;68.15;100068.98;4254924;82;28557;-86
2022/12/01 14:38:27;;;;;;;20.30;10.40;;;;;;;6.50;70.13;100070.78;4277472;82;28591;-87
2022/12/01 14:44:37;;;;;;;16.48;9.63;;;;;;;7.85;66.03;100066.05;4253995;84;28510;-86
2022/12/01 14:50:48;;;;;;;16.25;8.85;;;;;;;8.06;64.46;100057.73;4211357;82;28501;-84
2022/12/01 14:56:53;;;;;;;19.02;10.93;;;;;;;7.16;65.59;100064.02;4241273;82;28627;-86
2022/12/01 15:03:04;;;;;;;21.63;11.37;;;;;;;6.96;67.08;100060.53;4242419;82;28574;-87
2022/12/01 15:09:19;;;;;;;18.75;10.18;;;;;;;7.79;66.68;100068.96;4231189;82;28566;-87
2022/12/01 15:15:25;;;;;;;21.70;11.15;;;;;;;7.62;67.29;100064.33;4245301;82;44489;-87
2022/12/01 15:21:30;;;;;;;19.95;11.15;;;;;;;6.83;69.57;100061.14;4252444;83;28636;-87
2022/12/01 15:27:32;;;;;;;18.75;10.63;;;;;;;7.24;68.97;100064.42;4257299;82;28515;-87
2022/12/01 15:33:37;;;;;;;16.75;8.95;;;;;;;7.02;69.56;100064.31;4240293;82;28534;-88
2022/12/01 15:40:00;;;;;;;16.00;9.33;;;;;;;6.65;69.59;100074.00;4213939;82;43886;-85
2022/12/01 15:46:15;;;;;;;15.90;9.08;;;;;;;6.61;70.91;100071.37;4144218;84;28473;-87
2022/12/01 15:52:16;;;;;;;14.43;8.70;;;;;;;6.64;69.92;100075.01;4174467;84;28507;-87
2022/12/01 15:58:24;;;;;;;16.00;9.58;;;;;;;6.62;68.68;100074.36;4218004;82;28535;-87
2022/12/01 16:04:34;;;;;;;16.32;8.83;;;;;;;7.04;68.13;100062.81;4266526;81;28527;-87
2022/12/01 16:10:35;;;;;;;13.22;7.62;;;;;;;6.51;67.92;100067.62;4278761;82;28552;-88
2022/12/01 16:16:42;;;;;;;12.78;6.95;;;;;;;6.74;67.29;100070.25;4228494;82;28607;-88
2022/12/01 16:22:46;;;;;;;12.13;6.78;;;;;;;6.07;67.69;100079.75;4267029;82;28512;-89
2022/12/01 16:28:48;;;;;;;13.45;7.65;;;;;;;6.75;66.91;100069.23;4285695;82;28505;-86
2022/12/01 16:34:52;;;;;;;14.18;8.15;;;;;;;7.09;65.47;100068.42;4263683;82;28575;-85
2022/12/01 16:40:59;;;;;;;13.98;7.72;;;;;;;7.20;65.83;100067.97;4292827;82;28519;-88
2022/12/01 16:47:01;;;;;;;15.80;8.40;;;;;;;6.54;66.25;100068.06;4242653;82;28503;-86
2022/12/01 16:53:03;;;;;;;17.02;8.70;;;;;;;6.79;66.34;100070.55;4265824;81;28527;-85
2022/12/01 16:59:04;;;;;;;17.60;9.13;;;;;;;6.74;67.48;100066.76;4262702;82;28540;-87
2022/12/01 17:05:10;;;;;;;18.07;9.18;;;;;;;7.05;66.72;100060.45;4268880;82;28476;-84
2022/12/01 17:11:12;;;;;;;16.40;8.60;;;;;;;7.39;65.45;100057.25;4276224;83;28537;-88
2022/12/01 17:17:13;;;;;;;16.00;9.23;;;;;;;7.25;65.03;100052.22;4264529;82;28532;-84
2022/12/01 17:23:15;;;;;;;18.75;10.28;;;;;;;6.82;66.25;100053.30;4198360;83;28502;-86
2022/12/01 17:29:16;;;;;;;21.48;9.53;;;;;;;6.94;65.80;100061.22;4277062;81;28526;-87
2022/12/01 17:35:18;;;;;;;19.02;10.03;;;;;;;6.88;65.83;100061.94;4252813;82;28668;-87
2022/12/01 17:41:24;;;;;;;20.05;10.00;;;;;;;6.77;66.52;100067.73;4247555;82;28527;-87
2022/12/01 17:47:26;;;;;;;18.20;9.83;;;;;;;6.43;67.47;100077.84;4239326;83;28544;-82
2022/12/01 17:53:29;;;;;;;18.10;8.65;;;;;;;6.19;68.42;100074.83;4243675;83;28573;-85
2022/12/01 17:59:40;;;;;;;;;;;;;;;;;;;;;
2022/12/01 18:05:34;;;;;;;17.95;8.98;;;;;;;6.22;67.84;100063.81;4158578;84;28562;-85
2022/12/01 18:11:35;;;;;;;18.27;9.30;;;;;;;6.40;67.43;100058.17;4165489;84;28504;-85
2022/12/01 18:17:39;;;;;;;20.12;9.83;;;;;;;6.40;67.73;100060.84;4144515;84;28531;-84
2022/12/01 18:23:40;;;;;;;17.60;9.18;;;;;;;6.47;67.33;100064.96;4149201;84;28527;-83
2022/12/01 18:29:41;;;;;;;21.55;10.03;;;;;;;6.27;67.27;100066.77;4153775;84;28506;-82
2022/12/01 18:35:43;;;;;;;20.35;10.58;;;;;;;6.75;66.88;100065.74;4146882;84;28541;-83
2022/12/01 18:41:45;;;;;;;20.02;10.03;;;;;;;6.36;67.05;100070.23;4113633;84;28516;-86
2022/12/01 18:47:46;;;;;;;18.48;9.55;;;;;;;6.75;66.56;100065.74;4163436;84;28555;-87
2022/12/01 18:53:56;;;;;;;16.73;9.38;;;;;;;6.78;66.18;100060.87;4164963;84;28583;-87
2022/12/01 19:00:03;;;;;;;17.35;9.38;;;;;;;7.16;64.87;100068.52;4191646;83;28643;-88
2022/12/01 19:06:05;;;;;;;19.90;9.95;;;;;;;6.36;67.43;100062.22;4185765;83;28614;-85
2022/12/01 19:12:10;;;;;;;18.15;9.43;;;;;;;6.87;66.56;100060.28;4213971;83;28552;-84
2022/12/01 19:18:13;;;;;;;15.75;8.33;;;;;;;6.88;65.23;100059.27;4244353;82;28563;-85
2022/12/01 19:24:15;;;;;;;17.80;9.00;;;;;;;6.49;65.32;100057.09;4234712;82;28566;-84
2022/12/01 19:30:18;;;;;;;19.23;9.28;;;;;;;6.44;66.27;100052.78;4268673;82;28498;-83
2022/12/01 19:36:23;;;;;;;17.85;8.70;;;;;;;5.91;66.81;100064.63;4264384;83;28533;-86
2022/12/01 19:42:24;;;;;;;20.30;9.45;;;;;;;6.40;66.02;100051.00;4249317;83;28624;-86
2022/12/01 19:48:26;;;;;;;20.65;10.32;;;;;;;5.96;67.69;100055.09;4261248;82;28506;-85
2022/12/01 19:54:29;;;;;;;18.60;10.05;;;;;;;6.37;66.75;100046.52;4252366;82;28538;-85
2022/12/01 20:00:31;;;;;;;17.00;9.15;;;;;;;6.11;66.73;100054.35;4277055;81;28545;-82
2022/12/01 20:06:35;;;;;;;21.05;10.30;;;;;;;6.07;66.91;100056.55;4253359;83;28532;-84
2022/12/01 20:12:36;;;;;;;21.70;10.15;;;;;;;5.92;67.09;100063.63;4269131;83;28581;-84
2022/12/01 20:18:39;;;;;;;20.95;10.68;;;;;;;6.35;66.70;100054.70;4256777;83;28542;-84
2022/12/01 20:24:40;;;;;;;21.48;10.85;;;;;;;6.33;66.81;100058.05;4222798;83;28577;-82
2022/12/01 20:30:42;;;;;;;22.98;10.50;;;;;;;6.41;66.61;100051.81;4247103;82;28563;-81
2022/12/01 20:36:45;;;;;;;20.65;10.68;;;;;;;6.08;67.18;100053.38;4261371;83;28650;-86
2022/12/01 20:42:46;;;;;;;22.80;10.82;;;;;;;6.69;66.15;100044.05;4228241;83;28508;-83
2022/12/01 20:48:48;;;;;;;23.25;10.43;;;;;;;6.19;67.70;100049.45;4254627;81;28523;-83
2022/12/01 20:54:49;;;;;;;18.25;8.90;;;;;;;6.23;67.31;100038.24;4256655;80;28513;-81
2022/12/01 21:00:51;;;;;;;24.92;10.23;;;;;;;6.18;66.37;100047.80;4206406;83;28562;-81
2022/12/01 21:06:56;;;;;;;19.95;9.23;;;;;;;5.93;68.48;100051.41;4212260;82;28549;-86
2022/12/01 21:20:00;;;;;;;22.13;10.88;;;;;;;5.88;68.99;100043.12;4233979;83;28494;-85
2022/12/01 21:26:00;;;;;;;22.42;11.25;;;;;;;6.17;68.86;100035.45;4224949;83;28535;-84
2022/12/01 21:32:19;;;;;;;22.52;10.95;;;;;;;6.38;67.91;100041.50;4209670;83;28567;-84
2022/12/01 21:38:21;;;;;;;18.07;9.28;;;;;;;5.80;69.80;100045.33;4197299;83;28607;-83
2022/12/01 21:44:28;;;;;;;21.80;10.28;;;;;;;5.50;70.43;100047.80;4223885;83;28503;-85
2022/12/01 21:50:31;;;;;;;24.85;10.95;;;;;;;6.38;67.72;100047.66;4218915;82;28560;-84
2022/12/01 21:56:33;;;;;;;20.40;9.80;;;;;;;5.96;70.39;100050.24;4223667;82;28539;-85
2022/12/01 22:02:46;;;;;;;23.83;11.57;;;;;;;5.82;68.11;100051.32;4252467;82;28595;-86
2022/12/01 22:08:57;;;;;;;21.40;11.20;;;;;;;5.92;69.87;100042.27;4240265;82;28451;-86
2022/12/01 22:15:00;;;;;;;19.35;10.23;;;;;;;5.91;70.12;100040.61;4243137;82;28593;-86
2022/12/01 22:21:29;;;;;;;21.87;10.93;;;;;;;5.77;69.37;100046.18;4197727;83;28470;-86
2022/12/01 22:27:39;;;;;;;23.12;10.78;;;;;;;6.14;68.54;100046.83;4161160;84;28527;-86
2022/12/01 22:33:43;;;;;;;23.32;11.45;;;;;;;6.08;69.01;100031.50;4165957;85;28500;-86
2022/12/01 22:39:48;;;;;;;26.35;12.30;;;;;;;6.02;67.91;100031.38;4122503;85;28552;-87
2022/12/01 22:46:16;;;;;;;21.60;11.47;;;;;;;6.37;66.88;100027.30;4168290;84;28603;-86
2022/12/01 22:52:23;;;;;;;21.35;10.68;;;;;;;6.15;67.62;100031.65;4157920;84;28540;-86
2022/12/01 22:58:30;;;;;;;20.02;10.63;;;;;;;5.91;68.61;100028.59;4132560;85;28543;-84
2022/12/01 23:04:39;;;;;;;22.37;11.90;;;;;;;6.28;67.45;100029.20;4192661;84;28464;-86
2022/12/01 23:10:41;;;;;;;21.82;10.85;;;;;;;5.99;69.86;100020.55;4179966;85;28514;-90
2022/12/01 23:16:43;;;;;;;24.87;12.20;;;;;;;5.64;73.67;100026.23;4162605;84;28495;-86
2022/12/01 23:22:46;;;;;;;19.85;10.40;;;;;;;5.37;75.52;100019.52;4173275;83;28608;-86
2022/12/01 23:28:47;;;;;;;21.68;9.78;;;;;;;5.48;72.98;100023.14;4180920;84;28496;-86
2022/12/01 23:34:49;;;;;;;23.32;11.43;;;;;;;5.40;73.31;100027.17;4180585;85;28483;-89
2022/12/01 23:40:53;;;;;;;22.10;11.03;;;;;;;5.10;76.83;100021.60;4178895;84;28556;-87
2022/12/01 23:46:57;;;;;;;24.15;11.50;;;;;;;5.84;72.71;100025.28;4190766;85;28520;-85
2022/12/01 23:52:58;;;;;;;19.90;10.58;;;;;;;6.13;71.81;100017.63;4178380;84;28529;-86
2022/12/01 23:59:04;;;;;;;19.48;9.73;;;;;;;5.74;72.66;100029.20;4184634;83;28487;-87
